ADDS METAR Data INFO
IDs: Format: Raw Decoded Include TAF

Data at: 2145 UTC 15 Dec 2017

KSUN 152048Z 12006KT 10SM SCT130 01/M04 A3011
KSUN 151948Z 12005KT 10SM SCT130 M01/M04 A3015
KSUN 151847Z 00000KT 10SM SCT130 M02/M06 A3020
KSUN 151747Z 29005KT 10SM SCT150 M03/M07 A3025
KSUN 151647Z 29006KT 10SM SCT150 M05/M08 A3025
KSUN 151547Z 30008KT 10SM FEW150 M07/M09 A3025
KSUN 151447Z 31006KT 10SM SKC M08/M10 A3026
KSUN 151352Z 31004KT 10SM SKC M07/M09 A3027
KSUN 151235Z AUTO 32007KT 7SM CLR M07/M09 A3029 RMK AO2
KSUN 151215Z AUTO 33005KT 10SM CLR M07/M08 A3029 RMK AO2
KSUN 151155Z AUTO 32006KT 10SM CLR M07/M08 A3030 RMK AO2
KSUN 151135Z AUTO 33006KT 10SM CLR M06/M08 A3031 RMK AO2
KSUN 151115Z AUTO 32006KT 10SM CLR M07/M08 A3032 RMK AO2
KSUN 151055Z AUTO 31006KT 10SM CLR M07/M08 A3032 RMK AO2
KSUN 151035Z AUTO 33005KT 10SM CLR M06/M08 A3033 RMK AO2
KSUN 151015Z AUTO 31007KT 10SM CLR M06/M08 A3033 RMK AO2
KSUN 150955Z AUTO 33006KT 10SM CLR M06/M07 A3034 RMK AO2
KSUN 150935Z AUTO 32004KT 10SM CLR M06/M08 A3033 RMK AO2
KSUN 150915Z AUTO 32007KT 10SM CLR M06/M07 A3033 RMK AO2
KSUN 150855Z AUTO 32006KT 10SM CLR M06/M07 A3033 RMK AO2
KSUN 150835Z AUTO 32007KT 10SM CLR M06/M07 A3034 RMK AO2
KSUN 150815Z AUTO 32006KT 10SM CLR M06/M07 A3035 RMK AO2
KSUN 150755Z AUTO 33008KT 10SM CLR M06/M07 A3036 RMK AO2
KSUN 150735Z AUTO 36004KT 10SM CLR M06/M07 A3035 RMK AO2
KSUN 150715Z AUTO 33003KT 10SM CLR M06/M07 A3036 RMK AO2
KSUN 150655Z AUTO 00000KT 10SM CLR M06/M07 A3036 RMK AO2
KSUN 150635Z AUTO 00000KT 10SM CLR M06/M07 A3036 RMK AO2
KSUN 150615Z AUTO 32005KT 10SM CLR M05/M06 A3036 RMK AO2
KSUN 150555Z AUTO 34004KT 10SM CLR M05/M06 A3036 RMK AO2
KSUN 150547Z 31004KT 10SM SKC M06/M07 A3036
KSUN 150535Z AUTO 31006KT 10SM CLR M05/M06 A3036 RMK AO2
KSUN 150515Z AUTO 00000KT 10SM CLR M06/M06 A3037 RMK AO2
KSUN 150447Z 31006KT 10SM SKC M04/M06 A3037
KSUN 150347Z 31006KT 10SM SKC M04/M06 A3037
KSUN 150247Z 31005KT 10SM SKC M03/M05 A3038
KSUN 150147Z 00000KT 10SM SKC M03/M05 A3038
KSUN 150050Z 00000KT 10SM SKC M02/M04 A3038
KSUN 142350Z 13008KT 10SM SKC M01/M04 A3038
KSUN 142247Z 13008KT 10SM SKC 02/M03 A3039
KSUN 142152Z 12007KT 10SM SKC 03/M03 A3039
KSUN 142049Z 13006KT 10SM SKC 03/M03 A3040
KSUN 141948Z 13006KT 10SM SKC 02/M03 A3042
KSUN 141850Z 00000KT 10SM FEW120 01/M06 A3043
KSUN 141747Z 31008KT 10SM FEW150 M02/M07 A3048
KSUN 141647Z 30010KT 10SM SKC M04/M07 A3047
KSUN 141547Z 30010KT 10SM FEW140 M07/M08 A3036
KSUN 141447Z 31008KT 10SM SKC M08/M09 A3046
KSUN 141347Z 32006KT 10SM FEW120 M08/M09 A3045
KSUN 141235Z AUTO 35005KT 10SM CLR M06/M07 A3043 RMK AO2
KSUN 141215Z AUTO 33005KT 10SM CLR M07/M08 A3042 RMK AO2
KSUN 141155Z AUTO 32008KT 10SM CLR M07/M08 A3042 RMK AO2
KSUN 141135Z AUTO 34004KT 10SM CLR M07/M07 A3042 RMK AO2
KSUN 141115Z AUTO 32006KT 10SM CLR M06/M07 A3042 RMK AO2
KSUN 141055Z AUTO 32007KT 10SM CLR M07/M07 A3042 RMK AO2
KSUN 141035Z AUTO 32009KT 10SM CLR M06/M07 A3042 RMK AO2
KSUN 141015Z AUTO 32007KT 10SM CLR M07/M07 A3042 RMK AO2
KSUN 140955Z AUTO 32008KT 10SM CLR M07/M07 A3042 RMK AO2